createdAt,value
2023-01-22T00:00:31.987Z,800.00
2023-01-22T00:01:31.989Z,811.00
2023-01-22T00:02:32.142Z,805.00
2023-01-22T00:03:32.060Z,812.00
2023-01-22T00:04:31.994Z,796.00
2023-01-22T00:05:31.995Z,811.00
2023-01-22T00:06:32.009Z,810.00
2023-01-22T00:07:32.015Z,824.00
2023-01-22T00:08:32.010Z,812.00
2023-01-22T00:09:31.997Z,823.00
2023-01-22T00:10:32.052Z,803.00
2023-01-22T00:11:32.032Z,816.00
2023-01-22T00:12:32.030Z,825.00
2023-01-22T00:13:32.033Z,826.00
2023-01-22T00:14:32.077Z,825.00
2023-01-22T00:15:32.040Z,828.00
2023-01-22T00:16:32.042Z,825.00
2023-01-22T00:17:32.038Z,823.00
2023-01-22T00:18:32.029Z,822.00
2023-01-22T00:19:32.032Z,820.00
2023-01-22T00:20:32.034Z,826.00
2023-01-22T00:21:32.017Z,835.00
2023-01-22T00:22:32.036Z,838.00
2023-01-22T00:23:32.048Z,823.00
2023-01-22T00:24:32.052Z,817.00
2023-01-22T00:25:32.022Z,814.00
2023-01-22T00:26:32.025Z,818.00
2023-01-22T00:27:32.036Z,823.00
2023-01-22T00:28:32.052Z,822.00
2023-01-22T00:29:32.035Z,823.00
2023-01-22T00:30:32.029Z,835.00
2023-01-22T00:31:32.119Z,827.00
2023-01-22T00:32:32.037Z,839.00
2023-01-22T00:33:32.066Z,824.00
2023-01-22T00:34:32.060Z,833.00
2023-01-22T00:35:32.055Z,830.00
2023-01-22T00:36:32.072Z,829.00
2023-01-22T00:37:32.064Z,820.00
2023-01-22T00:38:32.065Z,835.00
2023-01-22T00:39:32.064Z,838.00
2023-01-22T00:40:32.082Z,837.00
2023-01-22T00:41:32.111Z,835.00
2023-01-22T00:42:32.100Z,840.00
2023-01-22T00:43:32.114Z,828.00
2023-01-22T00:44:32.092Z,827.00
2023-01-22T00:45:32.124Z,840.00
2023-01-22T00:46:32.175Z,828.00
2023-01-22T00:47:32.113Z,838.00
2023-01-22T00:48:32.114Z,834.00
2023-01-22T00:49:32.144Z,839.00
2023-01-22T00:50:32.119Z,836.00
2023-01-22T00:51:32.133Z,853.00
2023-01-22T00:52:32.126Z,831.00
2023-01-22T00:53:32.135Z,833.00
2023-01-22T00:54:32.137Z,835.00
2023-01-22T00:55:32.166Z,837.00
2023-01-22T00:56:32.157Z,839.00
2023-01-22T00:57:32.141Z,846.00
2023-01-22T00:58:32.167Z,837.00
2023-01-22T00:59:32.145Z,843.00
2023-01-22T01:00:32.169Z,836.00
2023-01-22T01:01:32.170Z,835.00
2023-01-22T01:02:32.165Z,825.00
2023-01-22T01:03:32.182Z,842.00
2023-01-22T01:04:32.174Z,838.00
2023-01-22T01:05:32.181Z,845.00
2023-01-22T01:06:32.183Z,848.00
2023-01-22T01:07:32.195Z,849.00
2023-01-22T01:08:32.213Z,851.00
2023-01-22T01:09:32.186Z,856.00
2023-01-22T01:10:32.187Z,842.00
2023-01-22T01:11:32.194Z,843.00
2023-01-22T01:12:32.291Z,844.00
2023-01-22T01:13:32.231Z,845.00
2023-01-22T01:14:32.220Z,856.00
2023-01-22T01:15:32.231Z,846.00
2023-01-22T01:16:32.267Z,849.00
2023-01-22T01:17:32.222Z,845.00
2023-01-22T01:18:32.225Z,857.00
2023-01-22T01:19:32.230Z,853.00
2023-01-22T01:20:32.237Z,835.00
2023-01-22T01:21:32.249Z,846.00
2023-01-22T01:22:32.230Z,838.00
2023-01-22T01:23:32.242Z,849.00
2023-01-22T01:24:32.248Z,848.00
2023-01-22T01:25:32.238Z,854.00
2023-01-22T01:26:32.225Z,846.00
2023-01-22T01:27:32.220Z,848.00
2023-01-22T01:28:32.298Z,854.00
2023-01-22T01:29:32.238Z,850.00
2023-01-22T01:30:32.276Z,849.00
2023-01-22T01:31:32.261Z,847.00
2023-01-22T01:32:32.212Z,850.00
2023-01-22T01:33:32.224Z,844.00
2023-01-22T01:34:32.221Z,848.00
2023-01-22T01:35:32.207Z,854.00
2023-01-22T01:36:47.786Z,844.00
2023-01-22T01:37:33.213Z,846.00
2023-01-22T01:38:32.200Z,847.00
2023-01-22T01:39:32.199Z,853.00
2023-01-22T01:40:32.197Z,850.00
2023-01-22T01:41:32.200Z,861.00
2023-01-22T01:42:32.191Z,868.00
2023-01-22T01:43:32.190Z,863.00
2023-01-22T01:44:32.289Z,858.00
2023-01-22T01:45:32.227Z,861.00
2023-01-22T01:46:32.227Z,853.00
2023-01-22T01:47:32.197Z,856.00
2023-01-22T01:48:32.191Z,859.00
2023-01-22T01:49:32.220Z,859.00
2023-01-22T01:50:32.194Z,866.00
2023-01-22T01:51:32.204Z,863.00
2023-01-22T01:52:32.197Z,858.00
2023-01-22T01:53:32.231Z,864.00
2023-01-22T01:54:32.200Z,851.00
2023-01-22T01:55:32.218Z,857.00
2023-01-22T01:56:32.203Z,850.00
2023-01-22T01:57:32.199Z,853.00
2023-01-22T01:58:32.190Z,857.00
2023-01-22T01:59:32.195Z,857.00
2023-01-22T02:00:32.308Z,864.00
2023-01-22T02:01:32.205Z,859.00
2023-01-22T02:02:32.199Z,868.00
2023-01-22T02:03:32.204Z,859.00
2023-01-22T02:04:32.225Z,867.00
2023-01-22T02:05:32.200Z,855.00
2023-01-22T02:06:32.221Z,862.00
2023-01-22T02:07:32.207Z,864.00
2023-01-22T02:08:32.212Z,857.00
2023-01-22T02:09:32.209Z,864.00
2023-01-22T02:10:32.221Z,865.00
2023-01-22T02:11:32.231Z,864.00
2023-01-22T02:12:32.228Z,864.00
2023-01-22T02:13:32.239Z,858.00
2023-01-22T02:14:32.244Z,870.00
2023-01-22T02:15:32.239Z,864.00
2023-01-22T02:16:32.380Z,868.00
2023-01-22T02:17:32.263Z,865.00
2023-01-22T02:18:32.294Z,869.00
2023-01-22T02:19:32.277Z,862.00
2023-01-22T02:20:32.259Z,861.00
2023-01-22T02:21:32.282Z,854.00
2023-01-22T02:22:32.260Z,854.00
2023-01-22T02:23:33.238Z,870.00
2023-01-22T02:24:32.281Z,861.00
2023-01-22T02:25:32.290Z,858.00
2023-01-22T02:26:32.282Z,860.00
2023-01-22T02:27:32.294Z,870.00
2023-01-22T02:28:32.304Z,869.00
2023-01-22T02:29:32.282Z,863.00
2023-01-22T02:30:32.384Z,877.00
2023-01-22T02:31:32.362Z,879.00
2023-01-22T02:32:32.391Z,868.00
2023-01-22T02:33:32.288Z,860.00
2023-01-22T02:34:32.305Z,867.00
2023-01-22T02:35:32.333Z,861.00
2023-01-22T02:36:32.312Z,868.00
2023-01-22T02:37:32.293Z,862.00
2023-01-22T02:38:32.294Z,860.00
2023-01-22T02:39:32.296Z,872.00
2023-01-22T02:40:32.310Z,857.00
2023-01-22T02:41:32.286Z,874.00
2023-01-22T02:42:32.280Z,867.00
2023-01-22T02:43:32.290Z,868.00
2023-01-22T02:44:32.297Z,868.00
2023-01-22T02:45:32.369Z,870.00
2023-01-22T02:46:32.299Z,869.00
2023-01-22T02:47:32.295Z,877.00
2023-01-22T02:48:32.388Z,854.00
2023-01-22T02:49:32.303Z,867.00
2023-01-22T02:50:32.314Z,864.00
2023-01-22T02:51:32.323Z,873.00
2023-01-22T02:52:32.320Z,867.00
2023-01-22T02:53:32.323Z,870.00
2023-01-22T02:54:32.331Z,863.00
2023-01-22T02:55:32.321Z,871.00
2023-01-22T02:56:32.334Z,864.00
2023-01-22T02:57:32.324Z,864.00
2023-01-22T02:58:32.350Z,862.00
2023-01-22T02:59:32.331Z,855.00
2023-01-22T03:00:32.331Z,869.00
2023-01-22T03:01:32.338Z,865.00
2023-01-22T03:02:32.382Z,870.00
2023-01-22T03:03:32.340Z,869.00
2023-01-22T03:04:32.427Z,872.00
2023-01-22T03:05:32.337Z,864.00
2023-01-22T03:06:32.340Z,872.00
2023-01-22T03:07:32.339Z,871.00
2023-01-22T03:08:32.347Z,870.00
2023-01-22T03:09:32.356Z,867.00
2023-01-22T03:10:32.357Z,868.00
2023-01-22T03:11:32.348Z,875.00
2023-01-22T03:12:32.350Z,875.00
2023-01-22T03:13:32.346Z,876.00
2023-01-22T03:14:32.344Z,875.00
2023-01-22T03:15:32.352Z,877.00
2023-01-22T03:16:32.402Z,876.00
2023-01-22T03:17:32.369Z,865.00
2023-01-22T03:18:32.370Z,863.00
2023-01-22T03:19:32.370Z,862.00
2023-01-22T03:20:32.479Z,876.00
2023-01-22T03:21:32.399Z,858.00
2023-01-22T03:22:32.407Z,866.00
2023-01-22T03:23:32.402Z,856.00
2023-01-22T03:24:32.404Z,870.00
2023-01-22T03:25:32.409Z,866.00
2023-01-22T03:26:32.440Z,853.00
2023-01-22T03:27:32.463Z,858.00
2023-01-22T03:28:32.443Z,847.00
2023-01-22T03:29:32.443Z,845.00
2023-01-22T03:30:32.444Z,850.00
2023-01-22T03:31:33.310Z,835.00
2023-01-22T03:32:32.451Z,860.00
2023-01-22T03:33:32.456Z,835.00
2023-01-22T03:34:32.477Z,836.00
2023-01-22T03:35:32.480Z,845.00
2023-01-22T03:36:32.580Z,834.00
2023-01-22T03:37:32.521Z,835.00
2023-01-22T03:38:32.480Z,829.00
2023-01-22T03:39:32.520Z,837.00
2023-01-22T03:40:32.525Z,811.00
2023-01-22T03:41:32.497Z,829.00
2023-01-22T03:42:32.505Z,822.00
2023-01-22T03:43:32.507Z,815.00
2023-01-22T03:44:32.505Z,818.00
2023-01-22T03:45:32.507Z,810.00
2023-01-22T03:46:32.767Z,814.00
2023-01-22T03:47:32.534Z,803.00
2023-01-22T03:48:32.524Z,820.00
2023-01-22T03:49:32.535Z,806.00
2023-01-22T03:50:32.547Z,818.00
2023-01-22T03:51:32.546Z,793.00
2023-01-22T06:48:33.923Z,772.00
2023-01-22T06:50:33.015Z,792.00
2023-01-22T06:51:33.030Z,780.00
2023-01-22T06:52:33.009Z,780.00
2023-01-22T06:53:33.013Z,781.00
2023-01-22T06:54:33.048Z,777.00
2023-01-22T06:55:33.065Z,777.00
2023-01-22T06:56:33.017Z,775.00
2023-01-22T06:57:33.043Z,775.00
2023-01-22T06:58:33.040Z,778.00
2023-01-22T06:59:33.026Z,777.00
2023-01-22T07:00:33.029Z,776.00
2023-01-22T07:01:33.077Z,770.00
2023-01-22T07:02:33.025Z,795.00
2023-01-22T07:03:33.069Z,769.00
2023-01-22T07:04:33.137Z,780.00
2023-01-22T07:05:33.055Z,765.00
2023-01-22T07:06:33.057Z,776.00
2023-01-22T07:07:33.058Z,767.00
2023-01-22T07:08:33.058Z,766.00
2023-01-22T07:09:33.068Z,760.00
2023-01-22T07:10:33.091Z,762.00
2023-01-22T07:11:33.107Z,765.00
2023-01-22T07:12:33.102Z,760.00
2023-01-22T07:13:33.096Z,762.00
2023-01-22T07:14:37.541Z,761.00
2023-01-22T07:15:33.095Z,762.00
2023-01-22T07:16:33.169Z,762.00
2023-01-22T07:17:33.098Z,762.00
2023-01-22T07:18:33.117Z,763.00
2023-01-22T07:19:33.118Z,751.00
2023-01-22T07:20:33.197Z,751.00
2023-01-22T07:21:33.107Z,757.00
2023-01-22T07:22:33.117Z,754.00
2023-01-22T07:23:33.135Z,753.00
2023-01-22T07:24:33.130Z,749.00
2023-01-22T07:25:33.133Z,747.00
2023-01-22T07:26:33.123Z,736.00
2023-01-22T07:27:33.131Z,731.00
2023-01-22T07:28:33.141Z,737.00
2023-01-22T07:29:33.158Z,743.00
2023-01-22T07:30:33.182Z,749.00
2023-01-22T07:31:33.150Z,755.00
2023-01-22T07:32:33.153Z,744.00
2023-01-22T07:33:33.166Z,747.00
2023-01-22T07:34:33.175Z,745.00
2023-01-22T07:35:33.179Z,738.00
2023-01-22T07:36:38.926Z,741.00
2023-01-22T07:37:34.272Z,742.00
2023-01-22T07:38:33.180Z,743.00
2023-01-22T07:39:33.207Z,740.00
2023-01-22T07:40:33.205Z,746.00
2023-01-22T07:41:33.202Z,749.00
2023-01-22T07:42:33.205Z,748.00
2023-01-22T07:43:33.210Z,742.00
2023-01-22T07:44:33.232Z,747.00
2023-01-22T07:45:33.217Z,734.00
2023-01-22T07:46:33.241Z,738.00
2023-01-22T07:47:33.230Z,742.00
2023-01-22T07:48:33.234Z,747.00
2023-01-22T07:49:33.261Z,731.00
2023-01-22T07:50:33.266Z,728.00
2023-01-22T07:51:33.265Z,736.00
2023-01-22T07:52:33.273Z,721.00
2023-01-22T07:53:33.355Z,728.00
2023-01-22T07:54:33.315Z,731.00
2023-01-22T07:55:33.272Z,732.00
2023-01-22T07:56:33.279Z,733.00
2023-01-22T07:57:33.281Z,731.00
2023-01-22T07:58:33.294Z,722.00
2023-01-22T07:59:33.302Z,717.00
2023-01-22T08:00:33.332Z,730.00
2023-01-22T08:01:33.309Z,724.00
2023-01-22T08:02:33.313Z,712.00
2023-01-22T08:03:33.322Z,726.00
2023-01-22T08:04:33.322Z,724.00
2023-01-22T08:05:33.321Z,720.00
2023-01-22T08:06:33.320Z,719.00
2023-01-22T08:07:33.318Z,708.00
2023-01-22T08:08:33.317Z,714.00
2023-01-22T08:09:33.408Z,714.00
2023-01-22T08:10:33.315Z,712.00
2023-01-22T08:11:33.317Z,707.00
2023-01-22T08:12:33.324Z,702.00
2023-01-22T08:13:33.317Z,709.00
2023-01-22T08:14:33.314Z,708.00
2023-01-22T08:15:33.327Z,709.00
2023-01-22T08:16:33.383Z,703.00
2023-01-22T08:17:33.330Z,697.00
2023-01-22T08:18:33.316Z,700.00
2023-01-22T08:19:33.323Z,689.00
2023-01-22T08:20:33.335Z,712.00
2023-01-22T08:21:33.330Z,698.00
2023-01-22T08:22:33.361Z,706.00
2023-01-22T08:23:33.350Z,699.00
2023-01-22T08:24:33.339Z,699.00
2023-01-22T08:25:33.429Z,698.00
2023-01-22T08:26:33.333Z,690.00
2023-01-22T08:27:33.361Z,688.00
2023-01-22T08:28:33.359Z,690.00
2023-01-22T08:29:33.354Z,688.00
2023-01-22T08:30:38.460Z,690.00
2023-01-22T08:31:34.524Z,691.00
2023-01-22T08:32:33.378Z,691.00
2023-01-22T08:33:33.354Z,693.00
2023-01-22T08:34:33.351Z,689.00
2023-01-22T08:35:33.337Z,699.00
2023-01-22T08:36:33.333Z,699.00
2023-01-22T08:37:33.339Z,684.00
2023-01-22T08:38:33.338Z,689.00
2023-01-22T08:39:33.351Z,696.00
2023-01-22T08:40:33.351Z,704.00
2023-01-22T08:41:33.439Z,695.00
2023-01-22T08:42:33.336Z,694.00
2023-01-22T08:43:33.357Z,690.00
2023-01-22T08:44:33.332Z,683.00
2023-01-22T08:45:33.383Z,691.00
2023-01-22T08:46:33.362Z,700.00
2023-01-22T08:47:33.333Z,697.00
2023-01-22T08:48:33.337Z,694.00
2023-01-22T08:49:33.350Z,705.00
2023-01-22T08:50:33.331Z,700.00
2023-01-22T08:51:33.335Z,697.00
2023-01-22T08:52:33.325Z,705.00
2023-01-22T08:53:33.332Z,698.00
2023-01-22T08:54:33.337Z,702.00
2023-01-22T08:55:33.314Z,686.00
2023-01-22T08:56:33.349Z,682.00
2023-01-22T08:57:33.397Z,691.00
2023-01-22T08:58:33.345Z,707.00
2023-01-22T08:59:33.308Z,694.00
2023-01-22T09:00:33.323Z,702.00
2023-01-22T09:01:33.312Z,706.00
2023-01-22T09:02:33.301Z,705.00
2023-01-22T09:03:33.293Z,697.00
2023-01-22T09:04:33.282Z,704.00
2023-01-22T09:05:33.286Z,698.00
2023-01-22T09:06:33.287Z,701.00
2023-01-22T09:07:33.286Z,712.00
2023-01-22T09:08:33.293Z,700.00
2023-01-22T09:09:33.261Z,717.00
2023-01-22T09:10:33.270Z,702.00
2023-01-22T09:11:33.284Z,714.00
2023-01-22T09:12:33.267Z,714.00
2023-01-22T09:13:33.328Z,711.00
2023-01-22T09:14:33.235Z,729.00
2023-01-22T09:15:33.236Z,719.00
2023-01-22T09:16:33.255Z,720.00
2023-01-22T09:17:33.222Z,725.00
2023-01-22T09:18:33.200Z,718.00
2023-01-22T09:19:33.176Z,718.00
2023-01-22T09:20:33.165Z,721.00
2023-01-22T09:21:33.180Z,719.00
2023-01-22T09:22:33.164Z,723.00
2023-01-22T09:23:33.143Z,720.00
2023-01-22T09:24:33.139Z,711.00
2023-01-22T09:25:33.130Z,725.00
2023-01-22T09:26:33.115Z,718.00
2023-01-22T09:27:33.111Z,731.00
2023-01-22T09:28:35.147Z,734.00
2023-01-22T09:29:33.174Z,741.00
2023-01-22T09:30:33.085Z,736.00
2023-01-22T09:31:33.087Z,739.00
2023-01-22T09:32:33.043Z,734.00
2023-01-22T09:33:33.050Z,736.00
2023-01-22T09:34:33.035Z,732.00
2023-01-22T09:35:33.020Z,736.00
2023-01-22T09:36:33.024Z,738.00
2023-01-22T09:37:32.995Z,742.00
2023-01-22T09:38:33.886Z,731.00
2023-01-22T09:39:33.881Z,750.00
2023-01-22T09:40:33.006Z,741.00
2023-01-22T09:41:32.979Z,746.00
2023-01-22T09:42:32.963Z,747.00
2023-01-22T09:43:32.967Z,747.00
2023-01-22T09:44:32.939Z,749.00
2023-01-22T09:45:33.067Z,748.00
2023-01-22T09:46:32.950Z,754.00
2023-01-22T09:47:32.921Z,761.00
2023-01-22T09:48:32.914Z,752.00
2023-01-22T09:49:32.910Z,757.00
2023-01-22T09:50:32.881Z,748.00
2023-01-22T09:51:32.915Z,755.00
2023-01-22T09:52:32.856Z,760.00
2023-01-22T09:53:32.843Z,761.00
2023-01-22T09:54:32.833Z,761.00
2023-01-22T09:55:32.820Z,762.00
2023-01-22T09:56:32.884Z,762.00
2023-01-22T09:57:32.782Z,747.00
2023-01-22T09:58:32.784Z,764.00
2023-01-22T09:59:32.761Z,760.00
2023-01-22T10:00:32.788Z,757.00
2023-01-22T10:01:32.912Z,759.00
2023-01-22T10:02:32.835Z,757.00
2023-01-22T10:03:32.751Z,749.00
2023-01-22T10:04:32.697Z,749.00
2023-01-22T10:05:32.700Z,750.00
2023-01-22T10:06:32.665Z,752.00
2023-01-22T10:07:32.670Z,754.00
2023-01-22T10:08:32.669Z,757.00
2023-01-22T10:09:32.641Z,744.00
2023-01-22T10:10:32.632Z,750.00
2023-01-22T10:11:32.617Z,753.00
2023-01-22T10:12:32.614Z,759.00
2023-01-22T10:13:32.610Z,748.00
2023-01-22T10:14:32.577Z,753.00
2023-01-22T10:15:32.577Z,755.00
2023-01-22T10:16:32.566Z,756.00
2023-01-22T10:17:32.636Z,759.00
2023-01-22T10:18:32.543Z,751.00
2023-01-22T10:19:32.522Z,768.00
2023-01-22T10:55:32.095Z,760.00
2023-01-22T10:56:32.101Z,755.00
2023-01-22T10:57:32.072Z,751.00
2023-01-22T10:58:32.083Z,744.00
2023-01-22T10:59:32.062Z,746.00
2023-01-22T11:00:46.429Z,753.00
2023-01-22T11:01:33.070Z,754.00
2023-01-22T11:02:32.093Z,756.00
2023-01-22T11:03:32.003Z,755.00
2023-01-22T11:04:31.986Z,757.00
2023-01-22T11:05:31.998Z,762.00
2023-01-22T11:06:32.050Z,754.00
2023-01-22T11:07:32.891Z,753.00
2023-01-22T11:08:31.945Z,751.00
2023-01-22T11:09:31.954Z,761.00
2023-01-22T11:10:31.921Z,746.00
2023-01-22T11:11:31.920Z,749.00
2023-01-22T11:13:31.903Z,738.00
2023-01-22T11:14:31.879Z,754.00
2023-01-22T11:15:31.866Z,749.00
2023-01-22T11:16:31.834Z,750.00
2023-01-22T11:17:31.820Z,745.00
2023-01-22T11:18:31.823Z,748.00
2023-01-22T11:19:37.285Z,748.00
2023-01-22T11:20:32.789Z,749.00
2023-01-22T11:21:31.781Z,749.00
2023-01-22T11:22:31.849Z,752.00
2023-01-22T11:23:31.761Z,749.00
2023-01-22T11:24:31.744Z,749.00
2023-01-22T11:25:31.737Z,750.00
2023-01-22T11:26:31.718Z,749.00
2023-01-22T11:27:31.721Z,744.00
2023-01-22T11:28:31.686Z,738.00
2023-01-22T11:29:31.668Z,746.00
2023-01-22T11:30:31.700Z,751.00
2023-01-22T11:31:31.736Z,747.00
2023-01-22T11:32:31.637Z,745.00
2023-01-22T11:33:31.642Z,742.00
2023-01-22T11:34:31.615Z,737.00
2023-01-22T11:35:31.600Z,737.00
2023-01-22T11:36:31.577Z,739.00
2023-01-22T11:37:31.589Z,745.00
2023-01-22T11:38:31.658Z,735.00
2023-01-22T11:39:31.555Z,751.00
2023-01-22T11:40:31.536Z,731.00
2023-01-22T11:41:31.526Z,745.00
2023-01-22T11:42:31.536Z,743.00
2023-01-22T11:43:31.507Z,751.00
2023-01-22T11:44:31.529Z,745.00
2023-01-22T11:45:31.480Z,738.00
2023-01-22T11:46:31.526Z,747.00
2023-01-22T11:47:31.472Z,738.00
2023-01-22T11:48:31.472Z,743.00
2023-01-22T11:49:31.411Z,746.00
2023-01-22T11:50:31.411Z,751.00
2023-01-22T11:51:31.386Z,743.00
2023-01-22T11:52:31.361Z,744.00
2023-01-22T11:53:31.363Z,745.00
2023-01-22T11:54:31.431Z,742.00
2023-01-22T11:55:31.316Z,741.00
2023-01-22T11:56:31.318Z,748.00
2023-01-22T11:57:31.291Z,744.00
2023-01-22T11:58:31.310Z,736.00
2023-01-22T11:59:32.372Z,737.00
2023-01-22T12:00:31.255Z,746.00
2023-01-22T12:01:31.246Z,744.00
2023-01-22T12:02:31.239Z,749.00
2023-01-22T12:03:31.219Z,746.00
2023-01-22T12:04:31.187Z,748.00
2023-01-22T12:05:31.162Z,745.00
2023-01-22T12:28:30.754Z,746.00
2023-01-22T12:30:30.685Z,746.00
2023-01-22T13:13:29.971Z,666.00
2023-01-22T13:14:30.058Z,665.00
2023-01-22T13:15:29.977Z,664.00
2023-01-22T13:16:29.988Z,663.00
2023-01-22T13:17:29.918Z,663.00
2023-01-22T13:18:29.902Z,662.00
2023-01-22T13:19:29.879Z,663.00
2023-01-22T13:20:29.871Z,664.00
2023-01-22T13:21:29.840Z,665.00
2023-01-22T13:22:29.850Z,666.00
2023-01-22T13:23:29.824Z,665.00
2023-01-22T13:24:29.817Z,666.00
2023-01-22T13:25:29.789Z,669.00
2023-01-22T13:26:29.776Z,669.00
2023-01-22T13:27:29.775Z,664.00
2023-01-22T13:28:29.764Z,675.00
2023-01-22T13:29:29.743Z,666.00
2023-01-22T13:30:29.838Z,672.00
2023-01-22T13:31:29.720Z,679.00
2023-01-22T13:32:29.673Z,675.00
2023-01-22T13:33:29.685Z,666.00
2023-01-22T13:34:29.665Z,673.00
2023-01-22T13:35:29.638Z,668.00
2023-01-22T13:36:29.665Z,668.00
2023-01-22T13:37:29.611Z,675.00
2023-01-22T13:38:29.593Z,675.00
2023-01-22T13:39:29.604Z,667.00
2023-01-22T13:40:36.966Z,674.00
2023-01-22T13:41:30.549Z,675.00
2023-01-22T13:42:29.533Z,676.00
2023-01-22T13:43:29.536Z,676.00
2023-01-22T13:44:29.509Z,678.00
2023-01-22T13:45:29.490Z,678.00
2023-01-22T13:46:29.593Z,675.00
2023-01-22T13:47:29.480Z,681.00
2023-01-22T13:48:29.469Z,683.00
2023-01-22T13:49:29.429Z,681.00
2023-01-22T13:50:29.452Z,671.00
2023-01-22T13:51:29.394Z,678.00
2023-01-22T13:52:29.390Z,685.00
2023-01-22T13:53:29.363Z,672.00
2023-01-22T13:54:29.350Z,683.00
2023-01-22T13:55:29.339Z,682.00
2023-01-22T13:56:29.342Z,675.00
2023-01-22T13:57:29.283Z,681.00
2023-01-22T13:58:38.850Z,681.00
2023-01-22T13:59:30.277Z,682.00
2023-01-22T14:00:29.337Z,683.00
2023-01-22T14:01:29.257Z,685.00
2023-01-22T14:02:29.317Z,690.00
2023-01-22T14:03:29.190Z,688.00
2023-01-22T14:04:29.182Z,686.00
2023-01-22T14:05:29.170Z,685.00
2023-01-22T14:06:29.178Z,679.00
2023-01-22T14:07:29.145Z,673.00
2023-01-22T14:08:29.138Z,681.00
2023-01-22T14:09:29.111Z,683.00
2023-01-22T14:10:29.109Z,678.00
2023-01-22T14:11:29.108Z,680.00
2023-01-22T14:12:29.085Z,690.00
2023-01-22T14:13:29.086Z,682.00
2023-01-22T14:14:29.054Z,684.00
2023-01-22T14:15:29.040Z,684.00
2023-01-22T14:16:29.088Z,682.00
2023-01-22T14:17:29.075Z,685.00
2023-01-22T14:18:29.124Z,688.00
2023-01-22T14:19:29.016Z,685.00
2023-01-22T14:20:29.015Z,689.00
2023-01-22T14:21:28.992Z,687.00
2023-01-22T14:22:28.985Z,677.00
2023-01-22T14:23:28.986Z,683.00
2023-01-22T14:24:28.959Z,678.00
2023-01-22T14:25:31.557Z,681.00
2023-01-22T14:26:28.944Z,698.00
2023-01-22T14:27:28.949Z,682.00
2023-01-22T14:28:28.922Z,684.00
2023-01-22T14:29:28.910Z,691.00
2023-01-22T14:34:28.924Z,691.00
2023-01-22T16:11:27.899Z,649.00
2023-01-22T16:12:27.879Z,650.00
2023-01-22T16:13:27.871Z,650.00
2023-01-22T16:14:27.887Z,650.00
2023-01-22T16:15:27.857Z,651.00
2023-01-22T16:16:27.873Z,652.00
2023-01-22T16:17:27.858Z,655.00
2023-01-22T16:18:27.865Z,655.00
2023-01-22T16:19:27.851Z,652.00
2023-01-22T16:20:27.817Z,653.00
2023-01-22T16:21:27.816Z,653.00
2023-01-22T16:22:27.823Z,654.00
2023-01-22T16:23:27.829Z,655.00
2023-01-22T16:24:27.809Z,656.00
2023-01-22T16:25:27.789Z,657.00
2023-01-22T16:26:27.869Z,656.00
2023-01-22T16:27:27.760Z,656.00
2023-01-22T16:28:27.764Z,654.00
2023-01-22T16:29:27.740Z,655.00
2023-01-22T16:30:27.778Z,656.00
2023-01-22T16:31:27.883Z,655.00
2023-01-22T16:32:27.716Z,654.00
2023-01-22T16:33:27.723Z,657.00
2023-01-22T16:34:27.694Z,657.00
2023-01-22T16:35:27.674Z,655.00
2023-01-22T16:36:27.671Z,656.00
2023-01-22T16:37:27.672Z,656.00
2023-01-22T16:38:27.656Z,665.00
2023-01-22T16:39:27.637Z,656.00
2023-01-22T16:40:27.613Z,658.00
2023-01-22T16:41:27.599Z,652.00
2023-01-22T16:42:27.674Z,656.00
2023-01-22T16:43:27.587Z,657.00
2023-01-22T16:44:27.593Z,657.00
2023-01-22T16:45:27.560Z,654.00
2023-01-22T16:46:27.599Z,659.00
2023-01-22T16:47:27.541Z,653.00
2023-01-22T16:48:27.546Z,655.00
2023-01-22T16:49:27.524Z,653.00
2023-01-22T16:50:27.506Z,652.00
2023-01-22T16:51:27.548Z,654.00
2023-01-22T16:52:27.501Z,651.00
2023-01-22T16:53:27.497Z,652.00
2023-01-22T16:54:27.486Z,649.00
2023-01-22T16:55:27.471Z,649.00
2023-01-22T16:56:27.437Z,651.00
2023-01-22T16:57:27.460Z,650.00
2023-01-22T16:58:27.505Z,648.00
2023-01-22T16:59:27.406Z,652.00
2023-01-22T17:00:27.407Z,649.00
2023-01-22T17:01:27.465Z,643.00
2023-01-22T17:02:27.403Z,644.00
2023-01-22T17:03:27.381Z,645.00
2023-01-22T17:04:27.351Z,650.00
2023-01-22T17:05:27.349Z,646.00
2023-01-22T17:06:27.365Z,647.00
2023-01-22T17:07:33.675Z,645.00
2023-01-22T17:09:27.319Z,646.00
2023-01-22T17:10:27.304Z,645.00
2023-01-22T17:11:27.294Z,643.00
2023-01-22T17:13:27.286Z,644.00
2023-01-22T17:14:27.374Z,643.00
2023-01-22T17:15:27.286Z,644.00
2023-01-22T17:16:27.265Z,644.00
2023-01-22T17:17:27.254Z,642.00
2023-01-22T17:18:27.233Z,640.00
2023-01-22T17:19:27.241Z,642.00
2023-01-22T17:20:27.238Z,638.00
2023-01-22T17:21:27.223Z,634.00
2023-01-22T17:22:27.233Z,636.00
2023-01-22T17:23:27.218Z,638.00
2023-01-22T17:24:27.200Z,639.00
2023-01-22T17:25:27.202Z,638.00
2023-01-22T17:26:27.187Z,640.00
2023-01-22T17:27:27.178Z,636.00
2023-01-22T17:28:27.165Z,632.00
2023-01-22T17:29:27.188Z,637.00
2023-01-22T17:30:27.243Z,634.00
2023-01-22T17:31:27.342Z,638.00
2023-01-22T17:32:27.163Z,634.00
2023-01-22T17:33:27.156Z,639.00
2023-01-22T17:34:27.152Z,631.00
2023-01-22T17:35:27.142Z,634.00
2023-01-22T17:36:27.161Z,634.00
2023-01-22T17:37:27.139Z,631.00
2023-01-22T17:38:27.146Z,628.00
2023-01-22T17:39:27.137Z,629.00
2023-01-22T17:40:27.127Z,633.00
2023-01-22T17:41:27.124Z,630.00
2023-01-22T17:42:27.106Z,628.00
2023-01-22T17:43:27.104Z,628.00
2023-01-22T17:44:27.105Z,627.00
2023-01-22T17:47:27.078Z,631.00
2023-01-22T23:47:24.343Z,621.00
2023-01-22T23:48:24.346Z,618.00
2023-01-22T23:49:24.339Z,623.00
2023-01-22T23:50:24.335Z,623.00
2023-01-22T23:51:24.445Z,620.00
2023-01-22T23:52:24.298Z,619.00
2023-01-22T23:54:24.394Z,619.00
2023-01-22T23:55:24.283Z,622.00
2023-01-22T23:56:24.296Z,618.00
2023-01-22T23:57:24.278Z,618.00
2023-01-22T23:58:24.276Z,614.00
2023-01-22T23:59:24.304Z,614.00
